Time;durP1;ratioP1;P1;durP2;ratioP2;P2;SDS_P1;SDS_P2;PMS_P1;PMS_P2;Temp;Humidity;BMP_temperature;BMP_pressure;BME280_temperature;BME280_humidity;BME280_pressure;Samples;Min_cycle;Max_cycle;Signal;HPM_P1;HPM_P2
2023/05/08 00:00:30;;;;;;;5.63;4.60;;;14.50;99.90;;;;;;5105083;28;20648;-71
2023/05/08 00:02:57;;;;;;;6.30;4.87;;;14.50;99.90;;;;;;5103455;28;21205;-71
2023/05/08 00:05:24;;;;;;;6.33;4.77;;;14.60;99.90;;;;;;5105523;28;20652;-71
2023/05/08 00:07:52;;;;;;;4.23;3.83;;;14.50;99.90;;;;;;5110331;28;20660;-71
2023/05/08 00:10:19;;;;;;;4.17;3.73;;;14.50;99.90;;;;;;5093074;28;20978;-72
2023/05/08 00:12:45;;;;;;;6.67;4.63;;;14.50;99.90;;;;;;5101903;28;20664;-71
2023/05/08 00:15:12;;;;;;;6.40;4.87;;;14.60;99.90;;;;;;5111662;28;20629;-71
2023/05/08 00:17:40;;;;;;;7.53;5.73;;;14.60;99.90;;;;;;5109527;28;20619;-71
2023/05/08 00:20:08;;;;;;;5.30;4.77;;;14.60;99.90;;;;;;5090912;28;21192;-71
2023/05/08 00:22:35;;;;;;;5.30;4.83;;;14.60;99.90;;;;;;5109575;28;20616;-71
2023/05/08 00:25:03;;;;;;;7.43;6.53;;;14.60;99.90;;;;;;5091284;28;20623;-71
2023/05/08 00:27:30;;;;;;;6.00;5.00;;;14.60;99.90;;;;;;5091452;28;20662;-71
2023/05/08 00:29:56;;;;;;;7.50;5.70;;;14.60;99.90;;;;;;5110274;28;20973;-71
2023/05/08 00:32:23;;;;;;;7.63;5.40;;;14.60;99.90;;;;;;5103855;28;20699;-71
2023/05/08 00:34:52;;;;;;;8.23;5.20;;;14.60;99.90;;;;;;5091307;28;20717;-71
2023/05/08 00:37:19;;;;;;;6.40;4.83;;;14.50;99.90;;;;;;5095038;28;20641;-71
2023/05/08 00:39:46;;;;;;;8.30;4.60;;;14.50;99.90;;;;;;5091457;28;20618;-71
2023/05/08 00:42:13;;;;;;;6.57;5.87;;;14.50;99.90;;;;;;5105005;28;20649;-71
2023/05/08 00:44:40;;;;;;;6.60;5.57;;;14.50;99.90;;;;;;5091902;28;20644;-71
2023/05/08 00:47:07;;;;;;;8.13;4.90;;;14.50;99.90;;;;;;5091006;28;20648;-71
2023/05/08 00:49:34;;;;;;;6.33;5.00;;;14.50;99.90;;;;;;5090512;28;20680;-71
2023/05/08 00:52:07;;;;;;;6.37;4.63;;;14.50;99.90;;;;;;5090876;28;20649;-71
2023/05/08 00:54:35;;;;;;;5.60;4.77;;;14.40;99.90;;;;;;5092119;28;20629;-71
2023/05/08 00:57:03;;;;;;;7.03;6.30;;;14.50;99.90;;;;;;5103984;28;20656;-71
2023/05/08 00:59:31;;;;;;;7.60;5.27;;;14.50;99.90;;;;;;5108858;28;20754;-71
2023/05/08 01:01:57;;;;;;;9.07;6.60;;;14.40;99.90;;;;;;5095520;28;20651;-71
2023/05/08 01:04:26;;;;;;;10.17;7.50;;;14.40;99.90;;;;;;5098189;28;20621;-71
2023/05/08 01:06:53;;;;;;;9.40;6.53;;;14.40;99.90;;;;;;5091187;28;20648;-71
2023/05/08 01:09:21;;;;;;;14.27;7.30;;;14.40;99.90;;;;;;5090794;28;20661;-71
2023/05/08 01:11:55;;;;;;;8.70;5.87;;;14.40;99.90;;;;;;5101044;28;20672;-71
2023/05/08 01:14:36;;;;;;;9.30;6.60;;;14.40;99.90;;;;;;5104223;28;20632;-71
2023/05/08 01:17:10;;;;;;;8.70;7.03;;;14.30;99.90;;;;;;5109552;28;20662;-72
2023/05/08 01:20:03;;;;;;;10.70;7.87;;;14.40;99.90;;;;;;5094282;28;20632;-71
2023/05/08 01:22:50;;;;;;;9.27;5.90;;;14.40;99.90;;;;;;5089845;28;20971;-71
2023/05/08 01:25:51;;;;;;;11.33;8.27;;;14.40;99.90;;;;;;5090616;28;20618;-71
2023/05/08 01:29:00;;;;;;;11.57;7.20;;;14.40;99.90;;;;;;5093483;28;21213;-72
2023/05/08 01:31:44;;;;;;;10.40;5.80;;;14.40;99.90;;;;;;5085175;28;20677;-72
2023/05/08 01:34:19;;;;;;;8.37;6.13;;;14.30;99.90;;;;;;5104071;28;20617;-72
2023/05/08 01:36:52;;;;;;;9.00;7.10;;;14.30;99.90;;;;;;5113792;28;20680;-71
2023/05/08 01:39:32;;;;;;;8.47;6.50;;;14.30;99.90;;;;;;5094092;28;20662;-71
2023/05/08 01:42:05;;;;;;;6.60;5.30;;;14.30;99.90;;;;;;5100425;28;21212;-71
2023/05/08 01:44:37;;;;;;;6.73;5.17;;;14.30;99.90;;;;;;5098194;28;20979;-71
2023/05/08 01:47:08;;;;;;;6.93;5.40;;;14.40;99.90;;;;;;5114599;28;20684;-71
2023/05/08 01:49:42;;;;;;;8.57;5.87;;;14.40;99.90;;;;;;5113732;28;20684;-70
2023/05/08 01:52:17;;;;;;;8.67;5.20;;;14.40;99.90;;;;;;5114651;28;20636;-71
2023/05/08 01:54:49;;;;;;;10.17;6.40;;;14.40;99.90;;;;;;5094031;28;21180;-71
2023/05/08 01:57:18;;;;;;;10.17;6.00;;;14.50;99.90;;;;;;5094281;28;21192;-71
2023/05/08 01:59:49;;;;;;;8.10;4.93;;;14.40;99.90;;;;;;5109073;28;20625;-71
2023/05/08 02:02:17;;;;;;;10.50;5.53;;;14.50;99.90;;;;;;5113650;28;21223;-71
2023/05/08 02:04:47;;;;;;;8.00;5.50;;;14.50;99.90;;;;;;5106900;28;20625;-71
2023/05/08 02:07:14;;;;;;;10.23;6.37;;;14.50;99.90;;;;;;5094271;28;20621;-71
2023/05/08 02:09:45;;;;;;;7.13;5.90;;;14.40;99.90;;;;;;5106527;28;21075;-71
2023/05/08 02:12:14;;;;;;;7.30;6.23;;;14.40;99.90;;;;;;5094951;28;20661;-71
2023/05/08 02:14:43;;;;;;;8.20;5.20;;;14.40;99.90;;;;;;5096042;28;20988;-71
2023/05/08 02:17:11;;;;;;;5.93;4.70;;;14.40;99.90;;;;;;5114179;28;20647;-71
2023/05/08 02:19:41;;;;;;;8.70;5.40;;;14.40;99.90;;;;;;5112913;28;20613;-71
2023/05/08 02:22:10;;;;;;;6.83;5.90;;;14.40;99.90;;;;;;5114229;28;20633;-71
2023/05/08 02:24:39;;;;;;;9.43;5.80;;;14.40;99.90;;;;;;5109561;28;20979;-71
2023/05/08 02:27:09;;;;;;;10.63;6.10;;;14.40;99.90;;;;;;5093019;28;20702;-71
2023/05/08 02:29:38;;;;;;;7.70;5.87;;;14.30;99.90;;;;;;5092796;28;20649;-71
2023/05/08 02:32:08;;;;;;;7.43;5.60;;;14.30;99.90;;;;;;5099167;28;20671;-72
2023/05/08 02:34:39;;;;;;;8.93;5.60;;;14.30;99.90;;;;;;5096529;28;20691;-71
2023/05/08 02:37:06;;;;;;;8.00;5.37;;;14.40;99.90;;;;;;5092940;28;20706;-71
2023/05/08 02:39:36;;;;;;;10.00;6.27;;;14.40;99.90;;;;;;5093809;28;20616;-72
2023/05/08 02:42:04;;;;;;;6.63;4.60;;;14.30;99.90;;;;;;5109381;28;20748;-72
2023/05/08 02:44:32;;;;;;;9.13;5.90;;;14.40;99.90;;;;;;5102872;28;20618;-72
2023/05/08 02:47:05;;;;;;;9.50;5.93;;;14.30;99.90;;;;;;5106692;28;20649;-72
2023/05/08 02:49:43;;;;;;;8.70;5.13;;;14.30;99.90;;;;;;5097572;28;20648;-72
2023/05/08 02:52:16;;;;;;;7.37;5.93;;;14.30;99.90;;;;;;5093373;28;20640;-72
2023/05/08 02:54:55;;;;;;;11.30;5.30;;;14.40;99.90;;;;;;5111277;28;20628;-72
2023/05/08 02:57:31;;;;;;;5.40;4.80;;;14.40;99.90;;;;;;5101431;28;20649;-72
2023/05/08 03:00:03;;;;;;;8.20;5.07;;;14.40;99.90;;;;;;5111945;28;21247;-72
2023/05/08 03:02:37;;;;;;;6.03;4.43;;;14.40;99.90;;;;;;5112859;28;20761;-72
2023/05/08 03:05:13;;;;;;;7.00;5.23;;;14.30;99.90;;;;;;5111515;28;20631;-72
2023/05/08 03:07:42;;;;;;;6.23;4.80;;;14.30;99.90;;;;;;5094754;27;21036;-72
2023/05/08 03:10:14;;;;;;;8.30;5.90;;;14.30;99.90;;;;;;5092330;28;21044;-72
2023/05/08 03:12:45;;;;;;;8.53;5.90;;;14.30;99.90;;;;;;5094977;28;20617;-72
2023/05/08 03:15:19;;;;;;;7.07;5.77;;;14.30;99.90;;;;;;5092786;28;20721;-72
2023/05/08 03:17:47;;;;;;;6.37;5.13;;;14.30;99.90;;;;;;5107172;28;20609;-72
2023/05/08 03:20:17;;;;;;;7.47;5.33;;;14.30;99.90;;;;;;5111882;28;20648;-72
2023/05/08 03:22:47;;;;;;;8.23;5.37;;;14.20;99.90;;;;;;5108885;27;20653;-72
2023/05/08 03:25:18;;;;;;;6.80;4.43;;;14.30;99.90;;;;;;5092790;28;20683;-72
2023/05/08 03:27:46;;;;;;;5.73;4.20;;;14.30;99.90;;;;;;5092770;28;20986;-72
2023/05/08 03:30:14;;;;;;;8.63;5.70;;;14.30;99.90;;;;;;5110311;28;20659;-72
2023/05/08 03:32:42;;;;;;;4.30;3.90;;;14.20;99.90;;;;;;5100517;27;20957;-72
2023/05/08 03:35:10;;;;;;;9.53;5.77;;;14.30;99.90;;;;;;5092195;28;20602;-72
2023/05/08 03:37:37;;;;;;;9.97;4.13;;;14.30;99.90;;;;;;5091310;28;20609;-72
2023/05/08 03:40:06;;;;;;;6.03;4.73;;;14.20;99.90;;;;;;5091753;28;20620;-72
2023/05/08 03:42:35;;;;;;;6.57;4.73;;;14.20;99.90;;;;;;5097940;28;20713;-72
2023/05/08 03:45:03;;;;;;;8.60;5.50;;;14.20;99.90;;;;;;5102700;28;20974;-72
2023/05/08 03:47:31;;;;;;;7.50;5.13;;;14.20;99.90;;;;;;5111782;28;21212;-72
2023/05/08 03:50:00;;;;;;;9.43;4.77;;;14.20;99.90;;;;;;5111652;28;20737;-72
2023/05/08 03:52:27;;;;;;;7.37;5.50;;;14.20;99.90;;;;;;5100589;28;21076;-72
2023/05/08 03:54:53;;;;;;;9.60;6.97;;;14.20;99.90;;;;;;5091019;28;20741;-72
2023/05/08 03:57:21;;;;;;;9.23;5.40;;;14.20;99.90;;;;;;5090919;28;20319;-72
2023/05/08 03:59:54;;;;;;;7.23;5.40;;;14.20;99.90;;;;;;5104031;28;20625;-72
2023/05/08 04:02:28;;;;;;;10.57;5.40;;;14.30;99.90;;;;;;5102103;28;20643;-72
2023/05/08 04:05:01;;;;;;;6.60;5.47;;;14.30;99.90;;;;;;5091965;28;20618;-72
2023/05/08 04:07:33;;;;;;;5.80;4.13;;;14.30;99.90;;;;;;5099330;28;20640;-72
2023/05/08 04:10:06;;;;;;;6.20;5.60;;;14.30;99.90;;;;;;5111224;28;21005;-72
2023/05/08 04:12:39;;;;;;;6.23;5.07;;;14.30;99.90;;;;;;5101951;28;20622;-72
2023/05/08 04:15:15;;;;;;;6.33;4.43;;;14.30;99.90;;;;;;5091652;28;20621;-71
2023/05/08 04:17:47;;;;;;;7.60;4.80;;;14.30;99.90;;;;;;5109901;28;20631;-71
2023/05/08 04:20:19;;;;;;;7.87;6.40;;;14.30;99.90;;;;;;5111518;28;20609;-71
2023/05/08 04:22:48;;;;;;;5.40;4.60;;;14.30;99.90;;;;;;5108631;28;21004;-71
2023/05/08 04:25:17;;;;;;;5.87;4.27;;;14.30;99.90;;;;;;5091408;28;20678;-71
2023/05/08 04:27:44;;;;;;;5.20;4.67;;;14.30;99.90;;;;;;5105634;28;20705;-72
2023/05/08 04:30:14;;;;;;;6.23;4.90;;;14.40;99.90;;;;;;5090640;28;20656;-71
2023/05/08 04:32:44;;;;;;;5.37;4.50;;;14.40;99.90;;;;;;5103059;28;21346;-71
2023/05/08 04:35:12;;;;;;;6.20;5.07;;;14.40;99.90;;;;;;5111309;28;20625;-71
2023/05/08 04:37:39;;;;;;;6.30;5.57;;;14.40;99.90;;;;;;5108985;28;20627;-72
2023/05/08 04:40:07;;;;;;;7.57;5.10;;;14.40;99.90;;;;;;5110817;28;20621;-71
2023/05/08 04:42:35;;;;;;;11.30;6.60;;;14.40;99.90;;;;;;5099613;28;20649;-69
2023/05/08 04:45:02;;;;;;;6.40;4.60;;;14.40;99.90;;;;;;5111796;28;20617;-69
2023/05/08 04:47:30;;;;;;;6.57;4.23;;;14.40;99.90;;;;;;5108922;28;20643;-69
2023/05/08 04:49:57;;;;;;;6.43;4.50;;;14.40;99.90;;;;;;5090707;28;20662;-69
2023/05/08 04:52:24;;;;;;;6.87;6.20;;;14.50;99.90;;;;;;5098713;28;21026;-69
2023/05/08 04:54:50;;;;;;;6.00;5.00;;;14.40;99.90;;;;;;5111472;28;20708;-69
2023/05/08 04:57:17;;;;;;;5.43;4.80;;;14.40;99.90;;;;;;5101364;28;20652;-69
2023/05/08 04:59:44;;;;;;;5.80;4.80;;;14.40;99.90;;;;;;5108063;28;20625;-68
2023/05/08 05:02:11;;;;;;;6.13;4.60;;;14.50;99.90;;;;;;5108319;28;20642;-69
2023/05/08 05:04:39;;;;;;;8.50;6.17;;;14.50;99.90;;;;;;5105146;28;20702;-69
2023/05/08 05:07:06;;;;;;;7.03;4.70;;;14.50;99.90;;;;;;5099901;28;20697;-69
2023/05/08 05:09:35;;;;;;;6.60;5.03;;;14.50;99.90;;;;;;5114489;28;20645;-69
2023/05/08 05:12:02;;;;;;;7.07;5.30;;;14.60;99.90;;;;;;5109752;28;20824;-71
2023/05/08 05:14:29;;;;;;;7.07;5.27;;;14.60;99.90;;;;;;5105467;28;20682;-71
2023/05/08 05:16:56;;;;;;;4.73;4.13;;;14.60;99.90;;;;;;5114371;28;21216;-72
2023/05/08 05:19:23;;;;;;;7.47;4.80;;;14.50;99.90;;;;;;5105269;28;21238;-72
2023/05/08 05:21:51;;;;;;;5.43;4.43;;;14.60;99.90;;;;;;5094068;28;20654;-72
2023/05/08 05:24:17;;;;;;;6.93;5.20;;;14.60;99.90;;;;;;5110520;28;20631;-72
2023/05/08 05:26:44;;;;;;;6.10;3.80;;;14.60;99.90;;;;;;5114335;28;20748;-72
2023/05/08 05:29:12;;;;;;;7.23;5.43;;;14.60;99.90;;;;;;5098135;28;20652;-71
2023/05/08 05:31:38;;;;;;;6.97;5.57;;;14.60;99.90;;;;;;5094333;28;20653;-71
2023/05/08 05:34:05;;;;;;;7.07;5.27;;;14.60;99.90;;;;;;5094778;28;20616;-72
2023/05/08 05:36:32;;;;;;;5.50;3.80;;;14.50;99.90;;;;;;5111173;28;20660;-71
2023/05/08 05:39:00;;;;;;;6.77;4.80;;;14.50;99.90;;;;;;5097663;28;20725;-72
2023/05/08 05:41:27;;;;;;;6.67;5.60;;;14.40;99.90;;;;;;5101093;28;20653;-71
2023/05/08 05:43:54;;;;;;;7.70;5.47;;;14.40;99.90;;;;;;5106803;27;20733;-72
2023/05/08 05:46:20;;;;;;;7.03;4.80;;;14.40;99.90;;;;;;5106073;28;20740;-71
2023/05/08 05:48:47;;;;;;;6.97;5.00;;;14.40;99.90;;;;;;5108020;27;20639;-71
2023/05/08 05:51:14;;;;;;;5.50;4.73;;;14.50;99.90;;;;;;5107004;27;20654;-71
2023/05/08 05:53:41;;;;;;;5.83;5.23;;;14.50;99.90;;;;;;5105985;28;20629;-71
2023/05/08 05:56:09;;;;;;;6.40;5.10;;;14.50;99.90;;;;;;5104146;27;20750;-71
2023/05/08 05:58:36;;;;;;;9.07;6.60;;;14.50;99.90;;;;;;5100106;28;20626;-71
2023/05/08 06:01:03;;;;;;;7.27;5.37;;;14.50;99.90;;;;;;5112116;27;20995;-70
2023/05/08 06:03:30;;;;;;;7.10;5.07;;;14.60;99.90;;;;;;5122379;27;20660;-70
2023/05/08 06:05:57;;;;;;;7.20;5.43;;;14.70;99.90;;;;;;5118806;27;20795;-70
2023/05/08 06:08:24;;;;;;;7.13;5.17;;;14.60;99.90;;;;;;5113867;28;20686;-70
2023/05/08 06:10:51;;;;;;;6.50;4.60;;;14.60;99.90;;;;;;5111430;28;20660;-70
2023/05/08 06:13:19;;;;;;;5.43;4.87;;;14.70;99.90;;;;;;5113384;28;20624;-70
2023/05/08 06:15:46;;;;;;;6.50;5.63;;;14.70;99.90;;;;;;5113772;28;20649;-70
2023/05/08 06:18:13;;;;;;;6.10;4.97;;;14.70;99.90;;;;;;5108720;28;20655;-71
2023/05/08 06:20:40;;;;;;;18.53;5.40;;;14.70;99.90;;;;;;5096055;28;20645;-70
2023/05/08 06:23:07;;;;;;;9.07;7.60;;;14.60;99.90;;;;;;5104719;28;20749;-70
2023/05/08 06:25:33;;;;;;;9.40;5.67;;;14.70;99.90;;;;;;5096227;28;20224;-71
2023/05/08 06:28:01;;;;;;;7.03;5.50;;;14.70;99.90;;;;;;5094529;28;20732;-71
2023/05/08 06:30:29;;;;;;;6.00;4.93;;;14.80;99.90;;;;;;5091203;28;20993;-71
2023/05/08 06:32:56;;;;;;;11.43;5.30;;;14.80;99.90;;;;;;5105502;28;21034;-71
2023/05/08 06:35:22;;;;;;;5.27;4.40;;;14.90;99.90;;;;;;5103626;27;20633;-71
2023/05/08 06:37:49;;;;;;;9.50;5.57;;;14.90;99.90;;;;;;5111989;28;20645;-71
2023/05/08 06:40:16;;;;;;;6.70;5.10;;;14.90;99.90;;;;;;5109598;28;20606;-71
2023/05/08 06:42:43;;;;;;;6.10;5.30;;;14.90;99.90;;;;;;5095698;28;20633;-72
2023/05/08 06:45:10;;;;;;;6.80;4.80;;;14.90;99.90;;;;;;5103181;28;20736;-71
2023/05/08 06:47:39;;;;;;;6.47;4.57;;;15.00;99.90;;;;;;5103822;28;20675;-71
2023/05/08 06:50:06;;;;;;;9.40;4.40;;;15.00;99.90;;;;;;5105791;28;20650;-71
2023/05/08 06:52:33;;;;;;;7.87;5.10;;;15.00;99.90;;;;;;5108653;28;20704;-72
2023/05/08 06:55:00;;;;;;;7.90;4.30;;;15.00;99.90;;;;;;5110440;27;20628;-72
2023/05/08 06:57:29;;;;;;;6.60;4.83;;;15.00;99.90;;;;;;5109412;28;21056;-72
2023/05/08 06:59:55;;;;;;;5.90;4.87;;;15.00;99.90;;;;;;5095737;28;20622;-72
2023/05/08 07:02:22;;;;;;;8.60;5.40;;;15.00;99.90;;;;;;5114248;27;20642;-72
2023/05/08 07:04:50;;;;;;;7.33;5.10;;;15.00;99.90;;;;;;5092249;28;20634;-71
2023/05/08 07:07:17;;;;;;;9.57;5.80;;;14.90;99.90;;;;;;5094563;27;20654;-71
2023/05/08 07:09:44;;;;;;;6.57;5.40;;;14.90;99.90;;;;;;5104326;28;20651;-71
2023/05/08 07:12:11;;;;;;;6.43;4.93;;;14.80;99.90;;;;;;5110390;28;20769;-71
2023/05/08 07:14:37;;;;;;;6.07;5.00;;;14.90;99.90;;;;;;5108654;28;20666;-71
2023/05/08 07:17:06;;;;;;;6.57;4.90;;;14.90;99.90;;;;;;5111809;28;20648;-71
2023/05/08 07:19:33;;;;;;;6.70;5.27;;;14.80;99.90;;;;;;5111605;28;21182;-72
2023/05/08 07:22:02;;;;;;;5.60;5.10;;;14.90;99.90;;;;;;5111741;28;21163;-71
2023/05/08 07:24:28;;;;;;;6.40;5.43;;;14.90;99.90;;;;;;5112556;28;20675;-71
2023/05/08 07:26:56;;;;;;;5.37;4.23;;;15.00;99.90;;;;;;5112099;28;20629;-72
2023/05/08 07:29:22;;;;;;;7.47;5.43;;;15.00;99.90;;;;;;5111788;28;20618;-72
2023/05/08 07:31:50;;;;;;;6.67;5.50;;;15.00;99.90;;;;;;5098800;28;20645;-69
2023/05/08 07:34:17;;;;;;;5.63;4.97;;;14.90;99.90;;;;;;5110196;28;21188;-70
2023/05/08 07:36:44;;;;;;;6.13;5.13;;;15.10;99.90;;;;;;5096403;28;20657;-71
2023/05/08 07:39:13;;;;;;;6.13;4.83;;;15.20;99.90;;;;;;5092303;28;20644;-70
2023/05/08 07:41:40;;;;;;;6.07;5.17;;;15.40;99.90;;;;;;5101649;28;21292;-70
2023/05/08 07:44:07;;;;;;;5.17;4.67;;;15.50;99.90;;;;;;5096264;28;20637;-70
2023/05/08 07:46:34;;;;;;;5.80;5.20;;;15.60;99.90;;;;;;5091867;28;20658;-70
2023/05/08 07:49:01;;;;;;;8.47;4.60;;;15.60;99.90;;;;;;5103189;28;20634;-70
2023/05/08 07:51:28;;;;;;;8.30;6.30;;;15.60;99.90;;;;;;5094752;28;20674;-70
2023/05/08 07:53:55;;;;;;;7.00;5.50;;;15.60;99.90;;;;;;5091379;28;20630;-70
2023/05/08 07:56:23;;;;;;;5.20;4.70;;;15.60;99.90;;;;;;5108068;28;21241;-70
2023/05/08 07:58:50;;;;;;;7.87;4.43;;;15.60;99.90;;;;;;5097754;28;20630;-70
2023/05/08 08:01:17;;;;;;;5.77;3.77;;;15.60;99.90;;;;;;5110050;28;20744;-70
2023/05/08 08:03:44;;;;;;;5.50;3.73;;;15.60;99.90;;;;;;5096419;28;20625;-70
2023/05/08 08:06:11;;;;;;;4.20;3.70;;;15.60;99.90;;;;;;5104993;28;20660;-70
2023/05/08 08:08:38;;;;;;;4.13;3.73;;;15.50;99.90;;;;;;5091458;28;20620;-71
2023/05/08 08:11:05;;;;;;;4.23;3.70;;;15.50;99.90;;;;;;5091544;28;20662;-70
2023/05/08 08:13:33;;;;;;;3.80;2.97;;;15.60;99.90;;;;;;5107943;28;20621;-70
2023/05/08 08:16:02;;;;;;;2.53;2.33;;;15.50;99.90;;;;;;5110492;28;20660;-70
2023/05/08 08:18:29;;;;;;;3.30;3.00;;;15.40;99.90;;;;;;5103832;28;20630;-70
2023/05/08 08:20:56;;;;;;;3.23;2.77;;;15.40;99.90;;;;;;5090624;28;20771;-70
2023/05/08 08:23:23;;;;;;;3.03;2.83;;;15.40;99.90;;;;;;5099628;28;20721;-70
2023/05/08 08:25:52;;;;;;;4.83;3.37;;;15.30;99.90;;;;;;5097479;28;20675;-70
2023/05/08 08:28:19;;;;;;;3.23;2.97;;;15.30;99.90;;;;;;5101461;28;20622;-70
2023/05/08 08:30:47;;;;;;;4.20;2.60;;;15.30;99.90;;;;;;5097925;28;20698;-70
2023/05/08 08:33:14;;;;;;;5.43;3.17;;;15.30;99.90;;;;;;5099282;28;20653;-70
2023/05/08 08:35:43;;;;;;;4.67;3.47;;;15.20;99.90;;;;;;5091089;28;20646;-70
2023/05/08 08:38:10;;;;;;;3.37;2.90;;;15.20;99.90;;;;;;5109471;28;20657;-70
2023/05/08 08:40:40;;;;;;;2.33;2.13;;;15.30;99.90;;;;;;5109986;28;20685;-71
2023/05/08 08:43:07;;;;;;;3.00;2.80;;;15.20;99.90;;;;;;5109178;28;20629;-70
2023/05/08 08:45:34;;;;;;;3.70;2.87;;;15.20;99.90;;;;;;5110015;28;20645;-70
2023/05/08 08:48:03;;;;;;;3.90;2.77;;;15.20;99.90;;;;;;5104537;28;20726;-70
2023/05/08 08:50:32;;;;;;;2.23;2.03;;;15.20;99.90;;;;;;5090491;28;20663;-70
2023/05/08 08:53:07;;;;;;;4.53;2.73;;;15.20;99.90;;;;;;5094296;28;20648;-70
2023/05/08 08:55:37;;;;;;;3.00;2.53;;;15.20;99.90;;;;;;5109229;28;21221;-70
2023/05/08 08:58:13;;;;;;;3.30;2.70;;;15.20;99.90;;;;;;5106676;28;20629;-70
2023/05/08 09:00:41;;;;;;;4.87;3.50;;;15.20;99.90;;;;;;5096810;28;20648;-70
2023/05/08 09:03:10;;;;;;;3.47;2.67;;;15.20;99.90;;;;;;5094903;28;20649;-70
2023/05/08 09:05:37;;;;;;;3.50;3.20;;;15.20;99.90;;;;;;5093178;28;20646;-70
2023/05/08 09:08:05;;;;;;;6.53;4.23;;;15.20;99.90;;;;;;5108876;28;20618;-70
2023/05/08 09:10:32;;;;;;;4.90;3.20;;;15.20;99.90;;;;;;5098068;28;20723;-70
2023/05/08 09:12:59;;;;;;;4.47;3.40;;;15.20;99.90;;;;;;5103715;28;20626;-70
2023/05/08 09:15:26;;;;;;;4.60;3.03;;;15.30;99.90;;;;;;5110218;28;20736;-70
2023/05/08 09:17:53;;;;;;;5.43;2.97;;;15.30;99.90;;;;;;5089526;28;21450;-70
2023/05/08 09:20:22;;;;;;;5.20;3.33;;;15.30;99.90;;;;;;5089651;28;20618;-70
2023/05/08 09:22:49;;;;;;;3.20;2.70;;;15.30;99.90;;;;;;5089392;28;20623;-70
2023/05/08 09:25:17;;;;;;;5.03;4.43;;;15.30;99.90;;;;;;5090195;28;20636;-71
2023/05/08 09:27:44;;;;;;;3.97;3.50;;;15.40;99.90;;;;;;5089888;28;20998;-71
2023/05/08 09:30:13;;;;;;;4.10;3.50;;;15.40;99.90;;;;;;5089579;28;20771;-70
2023/05/08 09:32:41;;;;;;;6.37;3.70;;;15.50;99.90;;;;;;5089869;28;20647;-71
2023/05/08 09:35:09;;;;;;;3.13;2.83;;;15.50;99.90;;;;;;5089572;28;20625;-71
2023/05/08 09:37:40;;;;;;;3.40;3.10;;;15.50;99.90;;;;;;5090103;28;20766;-71
2023/05/08 09:40:18;;;;;;;3.43;3.13;;;15.50;99.90;;;;;;5088828;28;20631;-73
2023/05/08 09:42:45;;;;;;;3.87;3.03;;;15.60;99.90;;;;;;5107423;28;20644;-71
2023/05/08 09:45:25;;;;;;;3.10;2.80;;;15.70;99.90;;;;;;5108740;28;21159;-70
2023/05/08 09:47:52;;;;;;;4.10;3.43;;;15.80;99.90;;;;;;5108144;28;21064;-71
2023/05/08 09:50:18;;;;;;;3.20;2.57;;;15.90;99.90;;;;;;5089463;28;20727;-71
2023/05/08 09:52:50;;;;;;;3.20;2.63;;;15.90;99.90;;;;;;5090992;28;20624;-72
2023/05/08 09:55:17;;;;;;;4.80;3.27;;;15.90;99.90;;;;;;5104562;28;20629;-71
2023/05/08 09:57:53;;;;;;;2.60;2.40;;;16.00;99.90;;;;;;5093579;28;20622;-71
2023/05/08 10:00:20;;;;;;;2.27;2.07;;;16.10;99.90;;;;;;5111574;27;20651;-71
2023/05/08 10:02:55;;;;;;;2.40;2.10;;;16.20;99.90;;;;;;5113318;28;20642;-71
2023/05/08 10:05:28;;;;;;;2.00;1.87;;;16.20;99.90;;;;;;5114035;28;21149;-71
2023/05/08 10:07:57;;;;;;;2.20;1.90;;;16.30;99.90;;;;;;5094146;28;20970;-70
2023/05/08 10:10:27;;;;;;;1.90;1.80;;;16.30;99.90;;;;;;5092870;28;20661;-70
2023/05/08 10:12:55;;;;;;;2.47;2.27;;;16.50;99.90;;;;;;5093489;28;20626;-70
2023/05/08 10:15:24;;;;;;;2.17;1.97;;;16.60;99.90;;;;;;5093552;28;20624;-70
2023/05/08 10:17:54;;;;;;;1.73;1.63;;;16.70;99.90;;;;;;5093627;28;20619;-71
2023/05/08 10:20:23;;;;;;;1.87;1.73;;;16.90;99.90;;;;;;5092796;28;20976;-70
2023/05/08 10:22:51;;;;;;;1.67;1.57;;;16.90;99.90;;;;;;5112785;28;21183;-70
2023/05/08 10:25:22;;;;;;;1.77;1.63;;;16.90;99.90;;;;;;5112840;27;20729;-71
2023/05/08 10:27:56;;;;;;;2.10;1.70;;;16.80;99.90;;;;;;5113806;28;20627;-71
2023/05/08 10:30:25;;;;;;;1.60;1.50;;;16.90;99.90;;;;;;5105675;28;20633;-70
2023/05/08 10:32:54;;;;;;;2.57;1.90;;;16.90;99.90;;;;;;5104277;28;20667;-71
2023/05/08 10:35:22;;;;;;;1.93;1.83;;;16.90;99.90;;;;;;5109003;28;20631;-71
2023/05/08 10:37:49;;;;;;;2.23;1.33;;;16.90;99.90;;;;;;5111052;28;20624;-70
2023/05/08 10:40:20;;;;;;;2.93;2.63;;;16.80;99.90;;;;;;5112519;28;20621;-71
2023/05/08 10:42:48;;;;;;;3.83;1.80;;;16.80;99.90;;;;;;5113083;28;20623;-70
2023/05/08 10:45:15;;;;;;;2.20;2.00;;;16.80;99.90;;;;;;5113145;28;20992;-71
2023/05/08 10:47:51;;;;;;;2.50;2.13;;;16.80;99.90;;;;;;5100280;28;20631;-71
2023/05/08 10:50:39;;;;;;;2.10;1.90;;;16.90;99.90;;;;;;5099575;28;20979;-71
2023/05/08 10:53:11;;;;;;;3.10;2.80;;;16.90;99.90;;;;;;5103467;28;20960;-71
2023/05/08 10:55:40;;;;;;;4.80;2.80;;;16.90;99.90;;;;;;5112942;28;20639;-71
2023/05/08 10:58:11;;;;;;;2.60;2.40;;;16.90;99.90;;;;;;5112818;28;20623;-71
2023/05/08 11:01:14;;;;;;;2.30;2.07;;;16.90;99.90;;;;;;5091910;28;20643;-71
2023/05/08 11:03:43;;;;;;;2.13;1.93;;;16.90;99.90;;;;;;5090852;28;20620;-71
2023/05/08 11:06:10;;;;;;;3.90;3.03;;;17.00;99.90;;;;;;5092814;28;20652;-70
2023/05/08 11:08:46;;;;;;;2.60;2.40;;;17.00;99.90;;;;;;5110546;28;20626;-70
2023/05/08 11:11:33;;;;;;;2.20;2.00;;;17.20;99.90;;;;;;5111141;28;21238;-70
2023/05/08 11:14:14;;;;;;;3.03;2.63;;;17.20;99.90;;;;;;5094645;28;20624;-70
2023/05/08 11:17:11;;;;;;;3.40;2.87;;;17.20;99.90;;;;;;5095150;28;20995;-70
2023/05/08 11:19:38;;;;;;;3.03;2.60;;;17.30;99.90;;;;;;5048880;28;21075;-70
2023/05/08 11:22:23;;;;;;;2.60;2.37;;;17.40;99.90;;;;;;5086538;28;21014;-70
2023/05/08 11:24:54;;;;;;;1.80;1.70;;;17.60;99.90;;;;;;5093196;28;20627;-70
2023/05/08 11:27:38;;;;;;;2.13;1.67;;;17.70;99.90;;;;;;5100289;28;20646;-70
2023/05/08 11:30:25;;;;;;;2.60;2.40;;;17.70;99.90;;;;;;5111287;28;20624;-70
2023/05/08 11:33:17;;;;;;;1.60;1.50;;;17.80;99.90;;;;;;5107678;28;21489;-70
2023/05/08 11:35:46;;;;;;;2.30;1.77;;;17.90;99.90;;;;;;5108666;28;20646;-70
2023/05/08 11:38:18;;;;;;;2.87;2.13;;;17.90;99.90;;;;;;5111357;27;20616;-70
2023/05/08 11:40:46;;;;;;;3.20;3.00;;;17.90;99.90;;;;;;5109647;28;21586;-70
2023/05/08 11:43:24;;;;;;;2.40;2.20;;;18.00;99.90;;;;;;5111646;28;20983;-70
2023/05/08 11:45:53;;;;;;;2.00;1.80;;;18.00;99.90;;;;;;5111471;28;20738;-70
2023/05/08 11:48:20;;;;;;;2.90;2.53;;;18.00;99.90;;;;;;5096667;28;20635;-70
2023/05/08 11:50:47;;;;;;;3.03;2.83;;;18.10;99.90;;;;;;5110299;28;20640;-70
2023/05/08 11:53:14;;;;;;;3.13;2.90;;;18.20;99.90;;;;;;5096563;27;20707;-70
2023/05/08 11:55:41;;;;;;;3.00;2.63;;;18.30;99.90;;;;;;5106116;28;20655;-70
2023/05/08 11:58:12;;;;;;;3.83;3.47;;;18.50;99.90;;;;;;5106457;28;20622;-70
2023/05/08 12:00:43;;;;;;;5.27;3.20;;;18.60;99.90;;;;;;5107663;28;20644;-70
2023/05/08 12:03:12;;;;;;;3.60;3.30;;;18.70;99.90;;;;;;5103358;28;20613;-70
2023/05/08 12:05:40;;;;;;;3.40;3.10;;;18.70;99.90;;;;;;5094458;28;20646;-70
2023/05/08 12:08:07;;;;;;;4.53;4.13;;;18.70;99.90;;;;;;5111337;28;20628;-71
2023/05/08 12:10:40;;;;;;;4.70;3.43;;;18.80;99.90;;;;;;5098760;28;21113;-71
2023/05/08 12:13:16;;;;;;;4.27;3.87;;;18.80;99.90;;;;;;5102399;28;20755;-71
2023/05/08 12:15:43;;;;;;;4.10;3.70;;;18.80;99.90;;;;;;5094799;28;20654;-72
2023/05/08 12:18:11;;;;;;;4.00;3.70;;;18.60;99.90;;;;;;5096908;28;20635;-71
2023/05/08 12:20:38;;;;;;;4.60;4.20;;;19.00;99.90;;;;;;5090479;28;20648;-71
2023/05/08 12:23:05;;;;;;;5.20;4.50;;;19.30;99.90;;;;;;5090787;28;21276;-71
2023/05/08 12:25:32;;;;;;;4.30;3.80;;;19.90;99.90;;;;;;5090385;28;20647;-71
2023/05/08 12:27:59;;;;;;;5.10;4.20;;;20.60;99.90;;;;;;5090306;28;20632;-71
2023/05/08 12:30:26;;;;;;;4.97;4.50;;;21.10;99.90;;;;;;5090060;28;20636;-72
2023/05/08 12:32:53;;;;;;;5.17;4.67;;;21.40;99.50;;;;;;5090166;28;21243;-71
2023/05/08 12:35:22;;;;;;;4.67;4.27;;;21.10;98.80;;;;;;5090628;28;20656;-72
2023/05/08 12:37:51;;;;;;;4.87;4.37;;;20.90;99.50;;;;;;5090634;28;20674;-72
2023/05/08 12:40:30;;;;;;;4.27;3.80;;;21.00;98.40;;;;;;5090353;28;21171;-72
2023/05/08 12:42:57;;;;;;;4.60;4.20;;;20.90;98.20;;;;;;5097064;28;20715;-71
2023/05/08 12:45:25;;;;;;;4.70;4.30;;;21.50;99.30;;;;;;5090711;28;20743;-72
2023/05/08 12:47:55;;;;;;;4.23;3.70;;;22.50;97.20;;;;;;5102804;28;20622;-72
2023/05/08 12:50:24;;;;;;;6.33;4.90;;;23.40;96.60;;;;;;5110517;28;20629;-71
2023/05/08 12:52:51;;;;;;;4.60;3.97;;;24.00;94.80;;;;;;5109157;28;20654;-71
2023/05/08 12:55:23;;;;;;;4.80;4.30;;;24.20;94.10;;;;;;5109578;28;21277;-71
2023/05/08 12:57:50;;;;;;;6.17;4.33;;;24.80;92.50;;;;;;5096832;28;20638;-71